createdAt,value
2022-12-22T00:05:06.095Z,12.40
2022-12-22T00:10:34.968Z,12.50
2022-12-22T00:15:55.765Z,12.60
2022-12-22T00:21:30.140Z,12.60
2022-12-22T00:26:53.183Z,12.60
2022-12-22T00:32:24.390Z,12.60
2022-12-22T00:37:52.875Z,12.70
2022-12-22T00:43:19.879Z,12.70
2022-12-22T00:49:06.830Z,12.70
2022-12-22T00:54:31.839Z,12.70
2022-12-22T00:59:56.454Z,12.70
2022-12-22T01:05:17.262Z,12.70
2022-12-22T01:10:47.630Z,12.70
2022-12-22T01:16:25.740Z,12.80
2022-12-22T01:21:46.983Z,12.70
2022-12-22T01:27:09.719Z,12.70
2022-12-22T01:32:34.067Z,12.70
2022-12-22T01:38:01.498Z,12.50
2022-12-22T01:43:41.635Z,12.50
2022-12-22T01:49:10.226Z,12.50
2022-12-22T01:54:38.699Z,12.50
2022-12-22T02:00:03.965Z,12.50
2022-12-22T02:05:36.442Z,12.60
2022-12-22T02:11:36.731Z,12.60
2022-12-22T02:17:06.629Z,12.70
2022-12-22T02:22:37.100Z,12.70
2022-12-22T02:28:02.319Z,12.70
2022-12-22T02:33:30.327Z,12.70
2022-12-22T02:39:08.949Z,12.80
2022-12-22T02:45:02.155Z,12.80
2022-12-22T02:51:00.018Z,12.90
2022-12-22T02:56:30.555Z,12.90
2022-12-22T03:01:52.865Z,12.80
2022-12-22T03:07:15.145Z,12.90
2022-12-22T03:12:40.664Z,13.00
2022-12-22T03:18:37.364Z,13.00
2022-12-22T03:24:01.847Z,13.00
2022-12-22T03:29:04.271Z,12.90
2022-12-22T03:34:07.823Z,13.00
2022-12-22T03:39:11.399Z,12.90
2022-12-22T03:44:41.606Z,12.90
2022-12-22T03:55:07.172Z,12.90
2022-12-22T04:00:18.931Z,12.90
2022-12-22T04:05:24.574Z,12.90
2022-12-22T04:10:48.703Z,12.90
2022-12-22T04:16:02.839Z,12.90
2022-12-22T04:21:15.789Z,13.00
2022-12-22T04:26:31.592Z,13.00
2022-12-22T04:31:50.393Z,13.10
2022-12-22T04:37:02.339Z,13.00
2022-12-22T04:42:13.255Z,12.80
2022-12-22T04:47:23.642Z,12.80
2022-12-22T04:52:27.388Z,12.70
2022-12-22T04:57:37.036Z,12.60
2022-12-22T05:02:46.823Z,12.70
2022-12-22T05:07:51.864Z,12.70
2022-12-22T05:13:07.241Z,12.60
2022-12-22T05:18:13.436Z,12.60
2022-12-22T05:23:26.885Z,12.60
2022-12-22T05:28:35.050Z,12.60
2022-12-22T05:33:42.300Z,12.70
2022-12-22T05:38:55.794Z,12.80
2022-12-22T05:44:09.655Z,12.70
2022-12-22T05:49:18.301Z,12.70
2022-12-22T05:54:27.960Z,12.60
2022-12-22T05:59:32.734Z,12.60
2022-12-22T06:04:42.203Z,12.60
2022-12-22T06:09:45.602Z,12.70
2022-12-22T06:14:53.523Z,12.60
2022-12-22T06:19:59.193Z,12.60
2022-12-22T06:25:05.093Z,12.60
2022-12-22T06:30:10.306Z,12.60
2022-12-22T06:35:18.810Z,12.60
2022-12-22T06:40:29.067Z,12.60
2022-12-22T06:45:31.949Z,12.60
2022-12-22T06:50:43.548Z,12.50
2022-12-22T06:55:48.625Z,12.60
2022-12-22T07:00:57.631Z,12.60
2022-12-22T07:06:02.972Z,12.60
2022-12-22T07:11:18.863Z,12.60
2022-12-22T07:16:23.673Z,12.60
2022-12-22T07:21:30.532Z,12.60
2022-12-22T07:26:47.010Z,12.70
2022-12-22T07:31:57.224Z,12.70
2022-12-22T07:37:01.203Z,12.70
2022-12-22T07:42:39.177Z,12.80
2022-12-22T07:53:45.438Z,12.90
2022-12-22T07:58:48.354Z,12.70
2022-12-22T08:03:59.917Z,12.50
2022-12-22T08:09:43.632Z,12.60
2022-12-22T08:14:59.597Z,12.50
2022-12-22T08:20:19.036Z,12.50
2022-12-22T08:25:23.624Z,12.50
2022-12-22T08:30:50.510Z,12.50
2022-12-22T08:36:04.241Z,12.60
2022-12-22T08:47:16.473Z,12.70
2022-12-22T08:52:32.559Z,12.60
2022-12-22T08:57:57.145Z,12.60
2022-12-22T09:03:04.302Z,12.50
2022-12-22T09:08:10.000Z,12.50
2022-12-22T09:18:51.707Z,12.40
2022-12-22T09:24:17.920Z,12.40
2022-12-22T09:29:27.603Z,12.30
2022-12-22T09:34:35.729Z,12.20
2022-12-22T09:39:38.145Z,12.20
2022-12-22T09:44:46.621Z,12.20
2022-12-22T09:50:03.248Z,12.20
2022-12-22T09:55:34.829Z,12.30
2022-12-22T10:00:41.372Z,12.30
2022-12-22T10:05:51.424Z,12.30
2022-12-22T10:10:56.862Z,12.40
2022-12-22T10:16:00.341Z,12.50
2022-12-22T10:21:15.560Z,12.50
2022-12-22T10:26:48.600Z,12.50
2022-12-22T10:32:26.274Z,12.50
2022-12-22T10:43:17.811Z,12.50
2022-12-22T10:48:40.992Z,12.60
2022-12-22T10:54:27.919Z,12.50
2022-12-22T11:00:23.354Z,12.60
2022-12-22T11:06:09.789Z,12.60
2022-12-22T11:11:31.550Z,12.70
2022-12-22T11:17:02.163Z,12.80
2022-12-22T11:22:25.916Z,12.80
2022-12-22T11:27:55.562Z,13.00
2022-12-22T11:33:56.131Z,13.20
2022-12-22T11:39:14.082Z,13.30
2022-12-22T11:44:36.840Z,13.40
2022-12-22T11:49:48.471Z,13.40
2022-12-22T11:55:24.449Z,13.50
2022-12-22T12:01:04.247Z,13.60
2022-12-22T12:06:07.291Z,13.60
2022-12-22T12:17:38.729Z,13.60
2022-12-22T12:22:47.448Z,13.60
2022-12-22T12:28:32.642Z,13.70
2022-12-22T12:33:54.697Z,13.70
2022-12-22T12:39:42.565Z,13.80
2022-12-22T12:44:47.093Z,13.80
2022-12-22T12:50:00.768Z,13.80
2022-12-22T12:55:31.855Z,13.80
2022-12-22T13:00:43.179Z,13.90
2022-12-22T13:06:07.543Z,13.90
2022-12-22T13:11:31.077Z,14.00
2022-12-22T13:16:41.836Z,14.00
2022-12-22T13:21:54.615Z,13.90
2022-12-22T13:27:09.134Z,13.90
2022-12-22T13:32:35.977Z,13.90
2022-12-22T13:37:49.127Z,13.90
2022-12-22T13:43:17.065Z,14.00
2022-12-22T13:48:44.736Z,14.00
2022-12-22T13:54:08.334Z,14.00
2022-12-22T13:59:37.296Z,14.00
2022-12-22T14:05:04.334Z,13.90
2022-12-22T14:10:16.275Z,13.90
2022-12-22T14:15:20.966Z,13.90
2022-12-22T14:20:45.881Z,13.90
2022-12-22T14:25:57.091Z,13.90
2022-12-22T14:31:08.922Z,13.90
2022-12-22T14:36:26.260Z,13.90
2022-12-22T14:41:46.655Z,13.90
2022-12-22T14:53:33.226Z,13.90
2022-12-22T14:58:41.911Z,13.90
2022-12-22T15:03:45.944Z,13.80
2022-12-22T15:08:48.479Z,13.90
2022-12-22T15:13:52.892Z,13.80
2022-12-22T15:19:18.241Z,13.80
2022-12-22T15:29:57.802Z,13.70
2022-12-22T15:35:18.440Z,13.70
2022-12-22T15:40:31.673Z,13.80
2022-12-22T15:45:44.272Z,13.80
2022-12-22T15:51:12.076Z,13.80
2022-12-22T15:56:20.505Z,13.80
2022-12-22T16:01:42.895Z,13.70
2022-12-22T16:06:46.911Z,13.70
2022-12-22T16:11:49.509Z,13.70
2022-12-22T16:16:52.012Z,13.70
2022-12-22T16:21:54.681Z,13.70
2022-12-22T16:27:17.952Z,13.60
2022-12-22T16:32:30.702Z,13.60
2022-12-22T16:37:32.872Z,13.60
2022-12-22T16:48:04.784Z,13.60
2022-12-22T16:53:11.186Z,13.60
2022-12-22T16:58:14.247Z,13.60
2022-12-22T17:03:23.316Z,13.60
2022-12-22T17:08:49.467Z,13.50
2022-12-22T17:13:55.990Z,13.50
2022-12-22T17:19:07.885Z,13.50
2022-12-22T17:24:33.611Z,13.40
2022-12-22T17:29:43.904Z,13.40
2022-12-22T17:34:50.039Z,13.40
2022-12-22T17:40:01.675Z,13.40
2022-12-22T17:45:15.721Z,13.40
2022-12-22T17:56:10.137Z,13.40
2022-12-22T18:01:19.357Z,13.40
2022-12-22T18:06:30.222Z,13.30
2022-12-22T18:11:45.846Z,13.30
2022-12-22T18:16:52.768Z,13.30
2022-12-22T18:21:58.026Z,13.30
2022-12-22T18:27:04.429Z,13.30
2022-12-22T18:32:09.756Z,13.30
2022-12-22T18:37:18.077Z,13.20
2022-12-22T18:42:24.559Z,13.20
2022-12-22T18:47:27.062Z,13.20
2022-12-22T18:52:31.122Z,13.20
2022-12-22T18:57:36.231Z,13.20
2022-12-22T19:02:41.220Z,13.10
2022-12-22T19:07:49.693Z,13.10
2022-12-22T19:12:56.136Z,13.10
2022-12-22T19:18:01.885Z,13.10
2022-12-22T19:23:06.320Z,13.10
2022-12-22T19:28:16.613Z,13.10
2022-12-22T19:33:25.342Z,13.10
2022-12-22T19:38:28.815Z,13.10
2022-12-22T19:43:33.588Z,13.10
2022-12-22T19:48:38.393Z,13.10
2022-12-22T19:53:41.806Z,13.10
2022-12-22T19:58:46.962Z,13.10
2022-12-22T20:03:52.258Z,13.10
2022-12-22T20:09:01.416Z,13.20
2022-12-22T20:14:03.686Z,13.20
2022-12-22T20:19:16.939Z,13.20
2022-12-22T20:24:22.932Z,13.20
2022-12-22T20:29:27.129Z,13.30
2022-12-22T20:34:30.192Z,13.30
2022-12-22T20:39:32.585Z,13.30
2022-12-22T20:44:34.733Z,13.30
2022-12-22T20:49:37.095Z,13.30
2022-12-22T20:54:41.611Z,13.30
2022-12-22T20:59:55.647Z,13.30
2022-12-22T21:04:59.815Z,13.30
2022-12-22T21:10:04.956Z,13.30
2022-12-22T21:15:10.544Z,13.30
2022-12-22T21:20:27.194Z,13.30
2022-12-22T21:25:29.591Z,13.30
2022-12-22T21:30:31.909Z,13.30
2022-12-22T21:35:37.060Z,13.30
2022-12-22T21:40:40.070Z,13.30
2022-12-22T21:45:44.378Z,13.30
2022-12-22T21:50:50.365Z,13.30
2022-12-22T21:55:56.526Z,13.20
2022-12-22T22:01:00.420Z,13.20
2022-12-22T22:06:02.572Z,13.20
2022-12-22T22:11:18.902Z,13.30
2022-12-22T22:16:22.419Z,13.30
2022-12-22T22:21:27.736Z,13.30
2022-12-22T22:26:30.998Z,13.30
2022-12-22T22:31:34.419Z,13.30
2022-12-22T22:36:36.681Z,13.30
2022-12-22T22:41:43.331Z,13.30
2022-12-22T22:46:47.755Z,13.30
2022-12-22T22:51:57.762Z,13.30
2022-12-22T22:57:06.091Z,13.30
2022-12-22T23:02:11.403Z,13.20
2022-12-22T23:07:21.324Z,13.20
2022-12-22T23:12:25.610Z,13.20
2022-12-22T23:17:45.864Z,13.20
2022-12-22T23:28:36.844Z,13.10
2022-12-22T23:33:50.023Z,13.10
2022-12-22T23:44:54.611Z,13.10
2022-12-22T23:50:51.257Z,13.10
2022-12-22T23:56:09.373Z,13.10
